sensor_id;sensor_type;location;lat;lon;timestamp;P1;durP1;ratioP1;P2;durP2;ratioP2
66626;SDS011;53498;50.422;14.912;2023-04-25T15:02:26;5.50;;;3.38;;
66626;SDS011;53498;50.422;14.912;2023-04-25T15:04:53;7.15;;;3.10;;
66626;SDS011;53498;50.422;14.912;2023-04-25T15:07:20;5.55;;;2.90;;
66626;SDS011;53498;50.422;14.912;2023-04-25T15:09:47;4.93;;;3.00;;
66626;SDS011;53498;50.422;14.912;2023-04-25T15:12:13;4.82;;;3.45;;
66626;SDS011;53498;50.422;14.912;2023-04-25T15:14:40;4.32;;;3.22;;
66626;SDS011;53498;50.422;14.912;2023-04-25T15:17:06;5.22;;;3.13;;
66626;SDS011;53498;50.422;14.912;2023-04-25T15:19:33;3.88;;;2.58;;
66626;SDS011;53498;50.422;14.912;2023-04-25T15:21:59;4.03;;;2.78;;
66626;SDS011;53498;50.422;14.912;2023-04-25T15:24:29;7.82;;;3.85;;
66626;SDS011;53498;50.422;14.912;2023-04-25T15:26:56;6.38;;;3.47;;
66626;SDS011;53498;50.422;14.912;2023-04-25T15:29:24;4.95;;;3.00;;
66626;SDS011;53498;50.422;14.912;2023-04-25T15:31:51;4.38;;;2.60;;
66626;SDS011;53498;50.422;14.912;2023-04-25T15:34:18;4.22;;;2.53;;
66626;SDS011;53498;50.422;14.912;2023-04-25T15:36:43;5.88;;;2.47;;
66626;SDS011;53498;50.422;14.912;2023-04-25T15:39:09;2.95;;;1.60;;
66626;SDS011;53498;50.422;14.912;2023-04-25T15:41:35;3.20;;;1.77;;
66626;SDS011;53498;50.422;14.912;2023-04-25T15:44:02;4.13;;;1.58;;
66626;SDS011;53498;50.422;14.912;2023-04-25T15:46:27;3.30;;;1.67;;
66626;SDS011;53498;50.422;14.912;2023-04-25T15:48:55;4.03;;;1.85;;
66626;SDS011;53498;50.422;14.912;2023-04-25T15:51:20;4.35;;;1.85;;
66626;SDS011;53498;50.422;14.912;2023-04-25T15:53:46;3.97;;;1.65;;
66626;SDS011;53498;50.422;14.912;2023-04-25T15:56:12;3.20;;;1.73;;
66626;SDS011;53498;50.422;14.912;2023-04-25T15:58:38;5.85;;;3.00;;
66626;SDS011;53498;50.422;14.912;2023-04-25T16:01:10;2.00;;;1.40;;
66626;SDS011;53498;50.422;14.912;2023-04-25T16:03:36;3.28;;;2.10;;
66626;SDS011;53498;50.422;14.912;2023-04-25T16:06:01;3.10;;;2.05;;
66626;SDS011;53498;50.422;14.912;2023-04-25T16:08:27;2.80;;;2.03;;
66626;SDS011;53498;50.422;14.912;2023-04-25T16:10:54;4.45;;;2.42;;
66626;SDS011;53498;50.422;14.912;2023-04-25T16:13:20;4.40;;;2.13;;
66626;SDS011;53498;50.422;14.912;2023-04-25T16:15:45;4.97;;;2.60;;
66626;SDS011;53498;50.422;14.912;2023-04-25T16:18:11;5.20;;;2.70;;
66626;SDS011;53498;50.422;14.912;2023-04-25T16:20:36;3.75;;;2.67;;
66626;SDS011;53498;50.422;14.912;2023-04-25T16:23:07;3.85;;;2.53;;
66626;SDS011;53498;50.422;14.912;2023-04-25T16:25:33;8.35;;;2.75;;
66626;SDS011;53498;50.422;14.912;2023-04-25T16:27:59;4.80;;;2.22;;
66626;SDS011;53498;50.422;14.912;2023-04-25T16:30:24;5.53;;;3.60;;
66626;SDS011;53498;50.422;14.912;2023-04-25T16:32:50;7.10;;;3.05;;
66626;SDS011;53498;50.422;14.912;2023-04-25T16:35:16;5.10;;;2.75;;
66626;SDS011;53498;50.422;14.912;2023-04-25T16:37:41;7.38;;;3.22;;
66626;SDS011;53498;50.422;14.912;2023-04-25T16:40:07;6.65;;;3.03;;
66626;SDS011;53498;50.422;14.912;2023-04-25T16:42:34;7.18;;;3.00;;
66626;SDS011;53498;50.422;14.912;2023-04-25T16:45:00;4.32;;;2.58;;
66626;SDS011;53498;50.422;14.912;2023-04-25T16:47:26;5.55;;;3.13;;
66626;SDS011;53498;50.422;14.912;2023-04-25T16:49:53;4.45;;;2.60;;
66626;SDS011;53498;50.422;14.912;2023-04-25T16:52:19;5.18;;;2.80;;
66626;SDS011;53498;50.422;14.912;2023-04-25T16:54:46;9.15;;;2.90;;
66626;SDS011;53498;50.422;14.912;2023-04-25T16:57:11;6.15;;;3.35;;
66626;SDS011;53498;50.422;14.912;2023-04-25T16:59:38;8.45;;;3.25;;
66626;SDS011;53498;50.422;14.912;2023-04-25T17:02:04;5.40;;;2.85;;
66626;SDS011;53498;50.422;14.912;2023-04-25T17:04:29;7.55;;;2.90;;
66626;SDS011;53498;50.422;14.912;2023-04-25T17:06:55;8.80;;;3.72;;
66626;SDS011;53498;50.422;14.912;2023-04-25T17:09:21;7.50;;;3.35;;
66626;SDS011;53498;50.422;14.912;2023-04-25T17:11:47;6.43;;;3.90;;
66626;SDS011;53498;50.422;14.912;2023-04-25T17:14:12;7.13;;;4.07;;
66626;SDS011;53498;50.422;14.912;2023-04-25T17:16:38;6.72;;;3.33;;
66626;SDS011;53498;50.422;14.912;2023-04-25T17:19:04;7.20;;;4.05;;
66626;SDS011;53498;50.422;14.912;2023-04-25T17:21:30;5.93;;;3.83;;
66626;SDS011;53498;50.422;14.912;2023-04-25T17:23:57;10.25;;;3.83;;
66626;SDS011;53498;50.422;14.912;2023-04-25T17:26:23;7.60;;;3.58;;
66626;SDS011;53498;50.422;14.912;2023-04-25T17:28:50;9.00;;;3.55;;
66626;SDS011;53498;50.422;14.912;2023-04-25T17:31:16;8.30;;;3.78;;
66626;SDS011;53498;50.422;14.912;2023-04-25T17:33:42;7.57;;;3.90;;
66626;SDS011;53498;50.422;14.912;2023-04-25T17:36:08;9.77;;;4.03;;
66626;SDS011;53498;50.422;14.912;2023-04-25T17:38:34;11.82;;;3.65;;
66626;SDS011;53498;50.422;14.912;2023-04-25T17:41:03;6.50;;;3.50;;
66626;SDS011;53498;50.422;14.912;2023-04-25T17:43:29;7.93;;;3.97;;
66626;SDS011;53498;50.422;14.912;2023-04-25T17:45:55;5.10;;;3.50;;
66626;SDS011;53498;50.422;14.912;2023-04-25T17:48:21;6.57;;;3.78;;
66626;SDS011;53498;50.422;14.912;2023-04-25T17:50:47;8.32;;;3.47;;
66626;SDS011;53498;50.422;14.912;2023-04-25T17:53:13;9.27;;;4.00;;
66626;SDS011;53498;50.422;14.912;2023-04-25T17:55:39;5.25;;;2.97;;
66626;SDS011;53498;50.422;14.912;2023-04-25T17:58:07;7.30;;;3.80;;
66626;SDS011;53498;50.422;14.912;2023-04-25T18:00:35;7.00;;;3.50;;
66626;SDS011;53498;50.422;14.912;2023-04-25T18:03:02;8.75;;;3.78;;
66626;SDS011;53498;50.422;14.912;2023-04-25T18:05:28;8.30;;;4.55;;
66626;SDS011;53498;50.422;14.912;2023-04-25T18:07:53;7.68;;;4.47;;
66626;SDS011;53498;50.422;14.912;2023-04-25T18:10:19;10.93;;;4.43;;
66626;SDS011;53498;50.422;14.912;2023-04-25T18:12:45;7.00;;;4.55;;
66626;SDS011;53498;50.422;14.912;2023-04-25T18:15:11;11.27;;;4.88;;
66626;SDS011;53498;50.422;14.912;2023-04-25T18:17:36;11.95;;;4.60;;
66626;SDS011;53498;50.422;14.912;2023-04-25T18:20:14;8.55;;;4.63;;
66626;SDS011;53498;50.422;14.912;2023-04-25T18:22:41;9.23;;;5.70;;
66626;SDS011;53498;50.422;14.912;2023-04-25T18:25:08;7.53;;;4.50;;
66626;SDS011;53498;50.422;14.912;2023-04-25T18:27:35;6.50;;;4.10;;
66626;SDS011;53498;50.422;14.912;2023-04-25T18:30:06;7.85;;;4.45;;
66626;SDS011;53498;50.422;14.912;2023-04-25T18:36:14;10.68;;;4.18;;
66626;SDS011;53498;50.422;14.912;2023-04-25T18:38:40;8.45;;;5.70;;
66626;SDS011;53498;50.422;14.912;2023-04-25T18:41:05;10.95;;;4.30;;
66626;SDS011;53498;50.422;14.912;2023-04-25T18:43:39;8.47;;;4.23;;
66626;SDS011;53498;50.422;14.912;2023-04-25T18:46:04;8.63;;;4.43;;
66626;SDS011;53498;50.422;14.912;2023-04-25T18:48:30;6.95;;;4.30;;
66626;SDS011;53498;50.422;14.912;2023-04-25T18:50:55;7.93;;;4.55;;
66626;SDS011;53498;50.422;14.912;2023-04-25T18:53:21;10.90;;;4.68;;
66626;SDS011;53498;50.422;14.912;2023-04-25T18:55:46;7.47;;;4.10;;
66626;SDS011;53498;50.422;14.912;2023-04-25T18:58:12;12.85;;;4.57;;
66626;SDS011;53498;50.422;14.912;2023-04-25T19:00:38;8.60;;;3.95;;
66626;SDS011;53498;50.422;14.912;2023-04-25T19:03:04;5.90;;;3.83;;
66626;SDS011;53498;50.422;14.912;2023-04-25T19:05:30;10.10;;;3.67;;
66626;SDS011;53498;50.422;14.912;2023-04-25T19:07:56;5.57;;;2.63;;
66626;SDS011;53498;50.422;14.912;2023-04-25T19:10:22;5.72;;;3.15;;
66626;SDS011;53498;50.422;14.912;2023-04-25T19:12:48;8.13;;;3.63;;
66626;SDS011;53498;50.422;14.912;2023-04-25T19:15:14;10.05;;;4.90;;
66626;SDS011;53498;50.422;14.912;2023-04-25T19:17:39;9.15;;;3.72;;
66626;SDS011;53498;50.422;14.912;2023-04-25T19:20:06;6.32;;;3.10;;
66626;SDS011;53498;50.422;14.912;2023-04-25T19:22:32;8.02;;;3.53;;
66626;SDS011;53498;50.422;14.912;2023-04-25T19:24:58;9.18;;;4.00;;
66626;SDS011;53498;50.422;14.912;2023-04-25T19:27:24;11.27;;;4.80;;
66626;SDS011;53498;50.422;14.912;2023-04-25T19:29:49;11.93;;;4.82;;
66626;SDS011;53498;50.422;14.912;2023-04-25T19:32:22;11.90;;;4.93;;
66626;SDS011;53498;50.422;14.912;2023-04-25T19:34:48;9.45;;;3.97;;
66626;SDS011;53498;50.422;14.912;2023-04-25T19:37:14;8.52;;;3.55;;
66626;SDS011;53498;50.422;14.912;2023-04-25T19:39:39;6.57;;;3.28;;
66626;SDS011;53498;50.422;14.912;2023-04-25T19:42:05;10.60;;;3.40;;
66626;SDS011;53498;50.422;14.912;2023-04-25T19:44:31;5.47;;;3.67;;
66626;SDS011;53498;50.422;14.912;2023-04-25T19:46:56;6.10;;;3.13;;
66626;SDS011;53498;50.422;14.912;2023-04-25T19:49:24;7.57;;;4.13;;
66626;SDS011;53498;50.422;14.912;2023-04-25T19:51:51;5.65;;;3.80;;
66626;SDS011;53498;50.422;14.912;2023-04-25T19:54:16;6.82;;;3.53;;
66626;SDS011;53498;50.422;14.912;2023-04-25T19:56:42;8.77;;;4.47;;
66626;SDS011;53498;50.422;14.912;2023-04-25T19:59:07;9.73;;;3.45;;
66626;SDS011;53498;50.422;14.912;2023-04-25T20:01:34;3.85;;;3.25;;
66626;SDS011;53498;50.422;14.912;2023-04-25T20:03:59;5.95;;;3.38;;
66626;SDS011;53498;50.422;14.912;2023-04-25T20:06:26;8.68;;;4.03;;
66626;SDS011;53498;50.422;14.912;2023-04-25T20:08:52;9.13;;;3.90;;
66626;SDS011;53498;50.422;14.912;2023-04-25T20:11:18;6.45;;;3.80;;
66626;SDS011;53498;50.422;14.912;2023-04-25T20:13:47;9.43;;;4.10;;
66626;SDS011;53498;50.422;14.912;2023-04-25T20:16:13;5.63;;;2.95;;
66626;SDS011;53498;50.422;14.912;2023-04-25T20:18:44;9.15;;;3.63;;
66626;SDS011;53498;50.422;14.912;2023-04-25T20:21:11;7.78;;;3.35;;
66626;SDS011;53498;50.422;14.912;2023-04-25T20:23:37;10.52;;;3.40;;
66626;SDS011;53498;50.422;14.912;2023-04-25T20:26:03;4.95;;;2.92;;
66626;SDS011;53498;50.422;14.912;2023-04-25T20:28:29;5.82;;;2.83;;
66626;SDS011;53498;50.422;14.912;2023-04-25T20:30:54;7.43;;;3.05;;
66626;SDS011;53498;50.422;14.912;2023-04-25T20:33:20;4.90;;;2.95;;
66626;SDS011;53498;50.422;14.912;2023-04-25T20:35:46;8.20;;;3.17;;
66626;SDS011;53498;50.422;14.912;2023-04-25T20:38:12;7.70;;;3.63;;
66626;SDS011;53498;50.422;14.912;2023-04-25T20:40:38;5.40;;;2.63;;
66626;SDS011;53498;50.422;14.912;2023-04-25T20:43:04;6.38;;;2.95;;
66626;SDS011;53498;50.422;14.912;2023-04-25T20:45:30;8.55;;;3.08;;
66626;SDS011;53498;50.422;14.912;2023-04-25T20:47:58;5.82;;;3.40;;
66626;SDS011;53498;50.422;14.912;2023-04-25T20:50:24;7.55;;;3.55;;
66626;SDS011;53498;50.422;14.912;2023-04-25T20:52:50;7.10;;;3.85;;
66626;SDS011;53498;50.422;14.912;2023-04-25T20:55:16;5.20;;;3.40;;
66626;SDS011;53498;50.422;14.912;2023-04-25T20:57:41;6.68;;;3.22;;
66626;SDS011;53498;50.422;14.912;2023-04-25T21:00:07;6.28;;;3.30;;
66626;SDS011;53498;50.422;14.912;2023-04-25T21:02:50;5.50;;;2.78;;
66626;SDS011;53498;50.422;14.912;2023-04-25T21:05:17;5.72;;;2.55;;
66626;SDS011;53498;50.422;14.912;2023-04-25T21:07:46;5.40;;;2.88;;
66626;SDS011;53498;50.422;14.912;2023-04-25T21:10:16;6.53;;;3.10;;
66626;SDS011;53498;50.422;14.912;2023-04-25T21:12:43;9.18;;;3.05;;
66626;SDS011;53498;50.422;14.912;2023-04-25T21:15:16;10.90;;;3.35;;
66626;SDS011;53498;50.422;14.912;2023-04-25T21:17:45;6.80;;;3.47;;
66626;SDS011;53498;50.422;14.912;2023-04-25T21:20:15;5.07;;;3.10;;
66626;SDS011;53498;50.422;14.912;2023-04-25T21:22:45;4.65;;;3.20;;
66626;SDS011;53498;50.422;14.912;2023-04-25T21:25:15;7.82;;;2.75;;
66626;SDS011;53498;50.422;14.912;2023-04-25T21:27:44;4.88;;;2.95;;
66626;SDS011;53498;50.422;14.912;2023-04-25T21:30:17;8.05;;;3.35;;
66626;SDS011;53498;50.422;14.912;2023-04-25T21:32:45;5.03;;;2.90;;
66626;SDS011;53498;50.422;14.912;2023-04-25T21:35:12;5.43;;;3.15;;
66626;SDS011;53498;50.422;14.912;2023-04-25T21:37:38;6.38;;;3.40;;
66626;SDS011;53498;50.422;14.912;2023-04-25T21:40:05;4.28;;;2.95;;
66626;SDS011;53498;50.422;14.912;2023-04-25T21:42:33;9.77;;;3.65;;
66626;SDS011;53498;50.422;14.912;2023-04-25T21:45:02;6.43;;;3.33;;
66626;SDS011;53498;50.422;14.912;2023-04-25T21:47:29;3.40;;;2.80;;
66626;SDS011;53498;50.422;14.912;2023-04-25T21:49:55;6.75;;;3.15;;
66626;SDS011;53498;50.422;14.912;2023-04-25T21:52:21;7.57;;;2.85;;
66626;SDS011;53498;50.422;14.912;2023-04-25T21:54:47;5.50;;;2.85;;
66626;SDS011;53498;50.422;14.912;2023-04-25T21:57:12;5.18;;;3.00;;
66626;SDS011;53498;50.422;14.912;2023-04-25T21:59:38;5.78;;;2.75;;
66626;SDS011;53498;50.422;14.912;2023-04-25T22:02:04;7.18;;;2.63;;
66626;SDS011;53498;50.422;14.912;2023-04-25T22:04:30;7.25;;;3.20;;
66626;SDS011;53498;50.422;14.912;2023-04-25T22:06:55;3.60;;;2.13;;
66626;SDS011;53498;50.422;14.912;2023-04-25T22:09:21;5.00;;;2.53;;
66626;SDS011;53498;50.422;14.912;2023-04-25T22:11:47;8.00;;;2.45;;
66626;SDS011;53498;50.422;14.912;2023-04-25T22:14:13;5.55;;;2.75;;
66626;SDS011;53498;50.422;14.912;2023-04-25T22:16:38;5.70;;;2.50;;
66626;SDS011;53498;50.422;14.912;2023-04-25T22:19:04;5.80;;;2.90;;
66626;SDS011;53498;50.422;14.912;2023-04-25T22:25:12;4.13;;;2.22;;
66626;SDS011;53498;50.422;14.912;2023-04-25T22:27:38;6.20;;;2.47;;
66626;SDS011;53498;50.422;14.912;2023-04-25T22:30:08;4.18;;;2.63;;
66626;SDS011;53498;50.422;14.912;2023-04-25T22:32:36;4.55;;;2.83;;
66626;SDS011;53498;50.422;14.912;2023-04-25T22:35:02;3.83;;;2.60;;
66626;SDS011;53498;50.422;14.912;2023-04-25T22:37:29;6.75;;;2.85;;
66626;SDS011;53498;50.422;14.912;2023-04-25T22:39:54;7.63;;;2.65;;
66626;SDS011;53498;50.422;14.912;2023-04-25T22:42:20;6.97;;;3.10;;
66626;SDS011;53498;50.422;14.912;2023-04-25T22:44:46;5.65;;;2.60;;
66626;SDS011;53498;50.422;14.912;2023-04-25T22:47:11;3.65;;;2.58;;
66626;SDS011;53498;50.422;14.912;2023-04-25T22:49:37;4.13;;;2.33;;
66626;SDS011;53498;50.422;14.912;2023-04-25T22:55:13;3.65;;;2.70;;
66626;SDS011;53498;50.422;14.912;2023-04-25T22:57:39;5.07;;;2.83;;
66626;SDS011;53498;50.422;14.912;2023-04-25T23:00:05;6.88;;;2.92;;
66626;SDS011;53498;50.422;14.912;2023-04-25T23:02:40;5.07;;;3.35;;
66626;SDS011;53498;50.422;14.912;2023-04-25T23:08:11;4.97;;;2.67;;
66626;SDS011;53498;50.422;14.912;2023-04-25T23:10:37;3.90;;;2.58;;
66626;SDS011;53498;50.422;14.912;2023-04-25T23:13:03;4.55;;;2.50;;
66626;SDS011;53498;50.422;14.912;2023-04-25T23:15:28;5.30;;;3.00;;
66626;SDS011;53498;50.422;14.912;2023-04-25T23:17:56;5.85;;;2.70;;
66626;SDS011;53498;50.422;14.912;2023-04-25T23:20:21;6.65;;;2.60;;
66626;SDS011;53498;50.422;14.912;2023-04-25T23:22:48;3.38;;;2.20;;
66626;SDS011;53498;50.422;14.912;2023-04-25T23:25:14;6.40;;;3.42;;
66626;SDS011;53498;50.422;14.912;2023-04-25T23:27:44;8.20;;;3.40;;
66626;SDS011;53498;50.422;14.912;2023-04-25T23:33:51;4.70;;;1.95;;
66626;SDS011;53498;50.422;14.912;2023-04-25T23:36:17;6.00;;;2.83;;
66626;SDS011;53498;50.422;14.912;2023-04-25T23:38:45;5.03;;;3.40;;
66626;SDS011;53498;50.422;14.912;2023-04-25T23:41:11;4.88;;;2.47;;
66626;SDS011;53498;50.422;14.912;2023-04-25T23:43:37;9.05;;;3.40;;
66626;SDS011;53498;50.422;14.912;2023-04-25T23:46:02;4.53;;;2.53;;
66626;SDS011;53498;50.422;14.912;2023-04-25T23:48:28;5.28;;;2.13;;
66626;SDS011;53498;50.422;14.912;2023-04-25T23:50:54;6.10;;;2.72;;
66626;SDS011;53498;50.422;14.912;2023-04-25T23:53:20;5.43;;;2.17;;
66626;SDS011;53498;50.422;14.912;2023-04-25T23:55:46;3.53;;;2.45;;
66626;SDS011;53498;50.422;14.912;2023-04-25T23:58:11;6.68;;;3.13;;
